sensor_id;sensor_type;location;lat;lon;timestamp;P1;durP1;ratioP1;P2;durP2;ratioP2
6209;SDS011;3138;52.550;13.148;2022-08-18T00:01:44;20.20;;;15.10;;
6209;SDS011;3138;52.550;13.148;2022-08-18T00:04:13;19.40;;;14.80;;
6209;SDS011;3138;52.550;13.148;2022-08-18T00:06:41;20.40;;;15.30;;
6209;SDS011;3138;52.550;13.148;2022-08-18T00:09:08;16.70;;;14.97;;
6209;SDS011;3138;52.550;13.148;2022-08-18T00:11:37;25.57;;;14.80;;
6209;SDS011;3138;52.550;13.148;2022-08-18T00:14:07;20.23;;;15.50;;
6209;SDS011;3138;52.550;13.148;2022-08-18T00:16:36;20.40;;;15.03;;
6209;SDS011;3138;52.550;13.148;2022-08-18T00:19:04;22.20;;;15.77;;
6209;SDS011;3138;52.550;13.148;2022-08-18T00:21:31;16.50;;;14.80;;
6209;SDS011;3138;52.550;13.148;2022-08-18T00:23:58;18.13;;;15.07;;
6209;SDS011;3138;52.550;13.148;2022-08-18T00:26:25;28.93;;;15.77;;
6209;SDS011;3138;52.550;13.148;2022-08-18T00:28:52;17.60;;;15.70;;
6209;SDS011;3138;52.550;13.148;2022-08-18T00:31:22;15.80;;;14.20;;
6209;SDS011;3138;52.550;13.148;2022-08-18T00:33:48;17.87;;;15.90;;
6209;SDS011;3138;52.550;13.148;2022-08-18T00:36:17;22.87;;;17.30;;
6209;SDS011;3138;52.550;13.148;2022-08-18T00:38:43;21.03;;;16.13;;
6209;SDS011;3138;52.550;13.148;2022-08-18T00:41:10;29.27;;;15.77;;
6209;SDS011;3138;52.550;13.148;2022-08-18T00:43:39;19.57;;;13.80;;
6209;SDS011;3138;52.550;13.148;2022-08-18T00:46:08;18.70;;;15.80;;
6209;SDS011;3138;52.550;13.148;2022-08-18T00:48:37;23.60;;;14.40;;
6209;SDS011;3138;52.550;13.148;2022-08-18T00:51:05;17.60;;;15.43;;
6209;SDS011;3138;52.550;13.148;2022-08-18T00:53:38;19.87;;;15.60;;
6209;SDS011;3138;52.550;13.148;2022-08-18T00:56:10;20.70;;;14.87;;
6209;SDS011;3138;52.550;13.148;2022-08-18T00:58:40;16.80;;;14.07;;
6209;SDS011;3138;52.550;13.148;2022-08-18T01:01:11;23.93;;;15.33;;
6209;SDS011;3138;52.550;13.148;2022-08-18T01:03:39;22.13;;;15.03;;
6209;SDS011;3138;52.550;13.148;2022-08-18T01:06:10;22.70;;;15.13;;
6209;SDS011;3138;52.550;13.148;2022-08-18T01:08:43;17.30;;;15.50;;
6209;SDS011;3138;52.550;13.148;2022-08-18T01:11:10;16.20;;;14.50;;
6209;SDS011;3138;52.550;13.148;2022-08-18T01:13:37;20.87;;;15.03;;
6209;SDS011;3138;52.550;13.148;2022-08-18T01:16:07;25.03;;;14.77;;
6209;SDS011;3138;52.550;13.148;2022-08-18T01:18:51;19.47;;;14.90;;
6209;SDS011;3138;52.550;13.148;2022-08-18T01:21:36;20.03;;;14.73;;
6209;SDS011;3138;52.550;13.148;2022-08-18T01:24:17;17.80;;;14.10;;
6209;SDS011;3138;52.550;13.148;2022-08-18T01:26:45;14.87;;;13.37;;
6209;SDS011;3138;52.550;13.148;2022-08-18T01:29:15;19.20;;;15.00;;
6209;SDS011;3138;52.550;13.148;2022-08-18T01:31:47;30.13;;;16.37;;
6209;SDS011;3138;52.550;13.148;2022-08-18T01:34:19;27.47;;;16.07;;
6209;SDS011;3138;52.550;13.148;2022-08-18T01:36:48;20.23;;;15.50;;
6209;SDS011;3138;52.550;13.148;2022-08-18T01:39:17;17.43;;;15.07;;
6209;SDS011;3138;52.550;13.148;2022-08-18T01:41:45;16.20;;;14.50;;
6209;SDS011;3138;52.550;13.148;2022-08-18T01:44:11;24.00;;;16.60;;
6209;SDS011;3138;52.550;13.148;2022-08-18T01:46:39;27.57;;;15.33;;
6209;SDS011;3138;52.550;13.148;2022-08-18T01:49:07;17.10;;;15.47;;
6209;SDS011;3138;52.550;13.148;2022-08-18T01:51:34;17.57;;;15.77;;
6209;SDS011;3138;52.550;13.148;2022-08-18T01:54:05;19.13;;;16.77;;
6209;SDS011;3138;52.550;13.148;2022-08-18T01:56:34;18.67;;;16.17;;
6209;SDS011;3138;52.550;13.148;2022-08-18T01:59:01;20.90;;;16.00;;
6209;SDS011;3138;52.550;13.148;2022-08-18T02:01:29;21.20;;;17.30;;
6209;SDS011;3138;52.550;13.148;2022-08-18T02:03:57;16.30;;;14.80;;
6209;SDS011;3138;52.550;13.148;2022-08-18T02:06:25;17.80;;;15.63;;
6209;SDS011;3138;52.550;13.148;2022-08-18T02:08:52;18.37;;;16.27;;
6209;SDS011;3138;52.550;13.148;2022-08-18T02:11:18;24.40;;;17.47;;
6209;SDS011;3138;52.550;13.148;2022-08-18T02:13:46;19.17;;;15.97;;
6209;SDS011;3138;52.550;13.148;2022-08-18T02:16:13;21.60;;;17.07;;
6209;SDS011;3138;52.550;13.148;2022-08-18T02:18:41;17.87;;;16.17;;
6209;SDS011;3138;52.550;13.148;2022-08-18T02:21:08;20.50;;;18.23;;
6209;SDS011;3138;52.550;13.148;2022-08-18T02:23:37;16.63;;;15.07;;
6209;SDS011;3138;52.550;13.148;2022-08-18T02:26:05;29.53;;;16.80;;
6209;SDS011;3138;52.550;13.148;2022-08-18T02:28:34;24.87;;;17.60;;
6209;SDS011;3138;52.550;13.148;2022-08-18T02:31:06;21.70;;;16.27;;
6209;SDS011;3138;52.550;13.148;2022-08-18T02:33:34;18.40;;;16.40;;
6209;SDS011;3138;52.550;13.148;2022-08-18T02:36:01;22.40;;;18.83;;
6209;SDS011;3138;52.550;13.148;2022-08-18T02:38:31;21.23;;;16.87;;
6209;SDS011;3138;52.550;13.148;2022-08-18T02:40:59;18.63;;;16.80;;
6209;SDS011;3138;52.550;13.148;2022-08-18T02:43:27;21.57;;;17.30;;
6209;SDS011;3138;52.550;13.148;2022-08-18T02:45:54;18.80;;;16.00;;
6209;SDS011;3138;52.550;13.148;2022-08-18T02:48:24;19.60;;;15.93;;
6209;SDS011;3138;52.550;13.148;2022-08-18T02:50:58;24.30;;;18.30;;
6209;SDS011;3138;52.550;13.148;2022-08-18T02:53:25;19.93;;;17.83;;
6209;SDS011;3138;52.550;13.148;2022-08-18T02:55:52;24.83;;;18.43;;
6209;SDS011;3138;52.550;13.148;2022-08-18T02:58:20;31.17;;;17.73;;
6209;SDS011;3138;52.550;13.148;2022-08-18T03:00:46;20.83;;;18.57;;
6209;SDS011;3138;52.550;13.148;2022-08-18T03:03:13;28.17;;;19.00;;
6209;SDS011;3138;52.550;13.148;2022-08-18T03:05:41;21.00;;;18.80;;
6209;SDS011;3138;52.550;13.148;2022-08-18T03:08:08;19.47;;;17.53;;
6209;SDS011;3138;52.550;13.148;2022-08-18T03:10:35;18.63;;;16.63;;
6209;SDS011;3138;52.550;13.148;2022-08-18T03:13:02;20.40;;;18.13;;
6209;SDS011;3138;52.550;13.148;2022-08-18T03:15:30;23.40;;;18.23;;
6209;SDS011;3138;52.550;13.148;2022-08-18T03:17:57;20.00;;;17.80;;
6209;SDS011;3138;52.550;13.148;2022-08-18T03:20:26;21.93;;;18.77;;
6209;SDS011;3138;52.550;13.148;2022-08-18T03:22:54;24.60;;;20.07;;
6209;SDS011;3138;52.550;13.148;2022-08-18T03:25:21;20.27;;;18.07;;
6209;SDS011;3138;52.550;13.148;2022-08-18T03:27:48;31.30;;;18.33;;
6209;SDS011;3138;52.550;13.148;2022-08-18T03:30:15;20.17;;;18.07;;
6209;SDS011;3138;52.550;13.148;2022-08-18T03:32:41;21.23;;;18.37;;
6209;SDS011;3138;52.550;13.148;2022-08-18T03:35:08;20.70;;;18.30;;
6209;SDS011;3138;52.550;13.148;2022-08-18T03:37:35;24.10;;;18.27;;
6209;SDS011;3138;52.550;13.148;2022-08-18T03:40:03;22.03;;;18.60;;
6209;SDS011;3138;52.550;13.148;2022-08-18T03:42:31;25.33;;;19.80;;
6209;SDS011;3138;52.550;13.148;2022-08-18T03:44:58;25.40;;;19.40;;
6209;SDS011;3138;52.550;13.148;2022-08-18T03:47:25;24.93;;;19.23;;
6209;SDS011;3138;52.550;13.148;2022-08-18T03:49:52;25.53;;;19.50;;
6209;SDS011;3138;52.550;13.148;2022-08-18T03:52:19;23.93;;;19.37;;
6209;SDS011;3138;52.550;13.148;2022-08-18T03:54:45;22.80;;;18.93;;
6209;SDS011;3138;52.550;13.148;2022-08-18T03:57:14;22.07;;;18.47;;
6209;SDS011;3138;52.550;13.148;2022-08-18T03:59:40;23.97;;;18.90;;
6209;SDS011;3138;52.550;13.148;2022-08-18T04:02:08;24.73;;;19.57;;
6209;SDS011;3138;52.550;13.148;2022-08-18T04:04:35;26.67;;;19.00;;
6209;SDS011;3138;52.550;13.148;2022-08-18T04:07:05;23.03;;;19.50;;
6209;SDS011;3138;52.550;13.148;2022-08-18T04:09:33;30.53;;;19.07;;
6209;SDS011;3138;52.550;13.148;2022-08-18T04:12:03;22.33;;;20.07;;
6209;SDS011;3138;52.550;13.148;2022-08-18T04:14:35;27.27;;;20.80;;
6209;SDS011;3138;52.550;13.148;2022-08-18T04:17:03;30.73;;;18.93;;
6209;SDS011;3138;52.550;13.148;2022-08-18T04:19:30;22.13;;;19.73;;
6209;SDS011;3138;52.550;13.148;2022-08-18T04:21:58;20.83;;;18.60;;
6209;SDS011;3138;52.550;13.148;2022-08-18T04:24:27;18.90;;;17.00;;
6209;SDS011;3138;52.550;13.148;2022-08-18T04:26:56;24.30;;;18.77;;
6209;SDS011;3138;52.550;13.148;2022-08-18T04:29:23;21.23;;;16.90;;
6209;SDS011;3138;52.550;13.148;2022-08-18T04:31:52;25.63;;;20.27;;
6209;SDS011;3138;52.550;13.148;2022-08-18T04:34:19;25.93;;;20.53;;
6209;SDS011;3138;52.550;13.148;2022-08-18T04:36:47;24.70;;;20.50;;
6209;SDS011;3138;52.550;13.148;2022-08-18T04:39:17;19.57;;;17.17;;
6209;SDS011;3138;52.550;13.148;2022-08-18T04:41:44;28.87;;;19.47;;
6209;SDS011;3138;52.550;13.148;2022-08-18T04:44:12;23.37;;;20.87;;
6209;SDS011;3138;52.550;13.148;2022-08-18T04:46:42;24.63;;;22.00;;
6209;SDS011;3138;52.550;13.148;2022-08-18T04:49:13;26.00;;;20.10;;
6209;SDS011;3138;52.550;13.148;2022-08-18T04:51:41;30.07;;;21.63;;
6209;SDS011;3138;52.550;13.148;2022-08-18T04:54:32;30.13;;;20.27;;
6209;SDS011;3138;52.550;13.148;2022-08-18T04:57:05;23.13;;;20.50;;
6209;SDS011;3138;52.550;13.148;2022-08-18T04:59:33;29.37;;;20.50;;
6209;SDS011;3138;52.550;13.148;2022-08-18T05:02:01;27.93;;;22.53;;
6209;SDS011;3138;52.550;13.148;2022-08-18T05:04:31;26.20;;;21.50;;
6209;SDS011;3138;52.550;13.148;2022-08-18T05:06:58;26.60;;;19.87;;
6209;SDS011;3138;52.550;13.148;2022-08-18T05:09:25;23.30;;;20.80;;
6209;SDS011;3138;52.550;13.148;2022-08-18T05:11:53;26.67;;;21.50;;
6209;SDS011;3138;52.550;13.148;2022-08-18T05:14:19;29.90;;;21.47;;
6209;SDS011;3138;52.550;13.148;2022-08-18T05:16:46;30.13;;;21.07;;
6209;SDS011;3138;52.550;13.148;2022-08-18T05:19:13;23.97;;;20.13;;
6209;SDS011;3138;52.550;13.148;2022-08-18T05:21:45;23.50;;;20.33;;
6209;SDS011;3138;52.550;13.148;2022-08-18T05:24:11;24.47;;;18.70;;
6209;SDS011;3138;52.550;13.148;2022-08-18T05:26:38;23.57;;;19.70;;
6209;SDS011;3138;52.550;13.148;2022-08-18T05:29:05;22.20;;;19.90;;
6209;SDS011;3138;52.550;13.148;2022-08-18T05:31:33;26.10;;;20.00;;
6209;SDS011;3138;52.550;13.148;2022-08-18T05:33:59;29.13;;;19.30;;
6209;SDS011;3138;52.550;13.148;2022-08-18T05:36:34;26.97;;;19.80;;
6209;SDS011;3138;52.550;13.148;2022-08-18T05:39:13;33.83;;;19.83;;
6209;SDS011;3138;52.550;13.148;2022-08-18T05:41:48;23.77;;;20.03;;
6209;SDS011;3138;52.550;13.148;2022-08-18T05:44:18;26.23;;;20.20;;
6209;SDS011;3138;52.550;13.148;2022-08-18T05:46:50;25.87;;;20.63;;
6209;SDS011;3138;52.550;13.148;2022-08-18T05:49:19;28.30;;;19.13;;
6209;SDS011;3138;52.550;13.148;2022-08-18T05:51:50;26.50;;;18.83;;
6209;SDS011;3138;52.550;13.148;2022-08-18T05:54:20;21.17;;;18.97;;
6209;SDS011;3138;52.550;13.148;2022-08-18T05:57:08;26.43;;;20.90;;
6209;SDS011;3138;52.550;13.148;2022-08-18T05:59:39;32.43;;;19.70;;
6209;SDS011;3138;52.550;13.148;2022-08-18T06:02:09;28.80;;;18.03;;
6209;SDS011;3138;52.550;13.148;2022-08-18T06:04:42;20.30;;;18.20;;
6209;SDS011;3138;52.550;13.148;2022-08-18T06:07:13;20.60;;;18.47;;
6209;SDS011;3138;52.550;13.148;2022-08-18T06:09:45;23.67;;;18.33;;
6209;SDS011;3138;52.550;13.148;2022-08-18T06:12:23;31.83;;;18.43;;
6209;SDS011;3138;52.550;13.148;2022-08-18T06:14:53;27.13;;;18.13;;
6209;SDS011;3138;52.550;13.148;2022-08-18T06:17:40;31.23;;;19.50;;
6209;SDS011;3138;52.550;13.148;2022-08-18T06:20:33;21.77;;;17.70;;
6209;SDS011;3138;52.550;13.148;2022-08-18T06:23:14;21.40;;;19.13;;
6209;SDS011;3138;52.550;13.148;2022-08-18T06:25:52;21.47;;;16.60;;
6209;SDS011;3138;52.550;13.148;2022-08-18T06:28:30;18.47;;;16.57;;
6209;SDS011;3138;52.550;13.148;2022-08-18T06:31:06;21.57;;;17.80;;
6209;SDS011;3138;52.550;13.148;2022-08-18T06:33:41;23.63;;;17.63;;
6209;SDS011;3138;52.550;13.148;2022-08-18T06:36:19;22.60;;;17.43;;
6209;SDS011;3138;52.550;13.148;2022-08-18T06:39:00;28.63;;;18.53;;
6209;SDS011;3138;52.550;13.148;2022-08-18T06:41:36;26.93;;;18.90;;
6209;SDS011;3138;52.550;13.148;2022-08-18T06:44:06;27.93;;;18.67;;
6209;SDS011;3138;52.550;13.148;2022-08-18T06:46:37;23.50;;;18.13;;
6209;SDS011;3138;52.550;13.148;2022-08-18T06:49:13;27.17;;;18.27;;
6209;SDS011;3138;52.550;13.148;2022-08-18T06:51:58;23.53;;;17.87;;
6209;SDS011;3138;52.550;13.148;2022-08-18T06:54:43;30.30;;;17.37;;
6209;SDS011;3138;52.550;13.148;2022-08-18T06:57:22;26.00;;;18.47;;
6209;SDS011;3138;52.550;13.148;2022-08-18T06:59:56;21.83;;;17.77;;
6209;SDS011;3138;52.550;13.148;2022-08-18T07:02:26;23.53;;;17.47;;
6209;SDS011;3138;52.550;13.148;2022-08-18T07:05:12;26.67;;;18.37;;
6209;SDS011;3138;52.550;13.148;2022-08-18T07:07:43;21.17;;;16.80;;
6209;SDS011;3138;52.550;13.148;2022-08-18T07:13:07;18.80;;;16.80;;
6209;SDS011;3138;52.550;13.148;2022-08-18T07:15:47;21.57;;;17.47;;
6209;SDS011;3138;52.550;13.148;2022-08-18T07:18:19;33.20;;;17.63;;
6209;SDS011;3138;52.550;13.148;2022-08-18T07:20:49;24.03;;;17.47;;
6209;SDS011;3138;52.550;13.148;2022-08-18T07:23:23;21.53;;;18.03;;
6209;SDS011;3138;52.550;13.148;2022-08-18T07:25:58;22.70;;;17.33;;
6209;SDS011;3138;52.550;13.148;2022-08-18T07:28:31;23.63;;;18.93;;
6209;SDS011;3138;52.550;13.148;2022-08-18T07:31:08;20.60;;;17.93;;
6209;SDS011;3138;52.550;13.148;2022-08-18T07:33:41;24.37;;;18.13;;
6209;SDS011;3138;52.550;13.148;2022-08-18T07:36:11;24.67;;;18.90;;
6209;SDS011;3138;52.550;13.148;2022-08-18T07:38:41;26.77;;;17.53;;
6209;SDS011;3138;52.550;13.148;2022-08-18T07:41:14;35.00;;;17.53;;
6209;SDS011;3138;52.550;13.148;2022-08-18T07:43:49;32.33;;;17.77;;
6209;SDS011;3138;52.550;13.148;2022-08-18T07:46:31;32.13;;;17.93;;
6209;SDS011;3138;52.550;13.148;2022-08-18T07:49:02;22.80;;;18.87;;
6209;SDS011;3138;52.550;13.148;2022-08-18T07:51:31;36.40;;;17.57;;
6209;SDS011;3138;52.550;13.148;2022-08-18T07:54:10;25.30;;;16.50;;
6209;SDS011;3138;52.550;13.148;2022-08-18T07:56:45;37.83;;;18.33;;
6209;SDS011;3138;52.550;13.148;2022-08-18T07:59:18;25.20;;;19.33;;
6209;SDS011;3138;52.550;13.148;2022-08-18T08:01:51;38.00;;;19.30;;
6209;SDS011;3138;52.550;13.148;2022-08-18T08:04:23;58.40;;;18.57;;
6209;SDS011;3138;52.550;13.148;2022-08-18T08:07:04;28.57;;;18.77;;
6209;SDS011;3138;52.550;13.148;2022-08-18T08:09:36;21.93;;;16.87;;
6209;SDS011;3138;52.550;13.148;2022-08-18T08:12:08;23.97;;;18.60;;
6209;SDS011;3138;52.550;13.148;2022-08-18T08:15:04;41.17;;;17.80;;
6209;SDS011;3138;52.550;13.148;2022-08-18T08:17:39;21.83;;;18.27;;
6209;SDS011;3138;52.550;13.148;2022-08-18T08:20:16;27.33;;;18.03;;
6209;SDS011;3138;52.550;13.148;2022-08-18T08:22:52;21.27;;;17.97;;
6209;SDS011;3138;52.550;13.148;2022-08-18T08:25:30;30.00;;;19.13;;
6209;SDS011;3138;52.550;13.148;2022-08-18T08:28:05;23.97;;;17.87;;
6209;SDS011;3138;52.550;13.148;2022-08-18T08:30:45;27.67;;;19.67;;
6209;SDS011;3138;52.550;13.148;2022-08-18T08:33:19;28.03;;;17.60;;
6209;SDS011;3138;52.550;13.148;2022-08-18T08:35:51;30.73;;;17.57;;
6209;SDS011;3138;52.550;13.148;2022-08-18T08:38:22;20.57;;;16.03;;
6209;SDS011;3138;52.550;13.148;2022-08-18T08:40:53;22.33;;;17.70;;
6209;SDS011;3138;52.550;13.148;2022-08-18T08:43:24;20.43;;;16.70;;
6209;SDS011;3138;52.550;13.148;2022-08-18T08:46:01;26.80;;;17.63;;
6209;SDS011;3138;52.550;13.148;2022-08-18T08:48:33;47.77;;;17.67;;
6209;SDS011;3138;52.550;13.148;2022-08-18T08:51:05;21.03;;;17.40;;
6209;SDS011;3138;52.550;13.148;2022-08-18T08:53:50;25.33;;;17.73;;
6209;SDS011;3138;52.550;13.148;2022-08-18T08:56:27;21.40;;;18.53;;
6209;SDS011;3138;52.550;13.148;2022-08-18T08:58:57;32.27;;;19.40;;
6209;SDS011;3138;52.550;13.148;2022-08-18T09:01:31;21.50;;;17.17;;
6209;SDS011;3138;52.550;13.148;2022-08-18T09:04:04;27.60;;;19.70;;
6209;SDS011;3138;52.550;13.148;2022-08-18T09:06:45;21.70;;;18.47;;
6209;SDS011;3138;52.550;13.148;2022-08-18T09:09:24;31.90;;;18.63;;
6209;SDS011;3138;52.550;13.148;2022-08-18T09:12:07;32.30;;;18.03;;
6209;SDS011;3138;52.550;13.148;2022-08-18T09:15:00;33.07;;;17.30;;
6209;SDS011;3138;52.550;13.148;2022-08-18T09:18:00;32.30;;;18.00;;
6209;SDS011;3138;52.550;13.148;2022-08-18T09:20:48;20.27;;;16.70;;
6209;SDS011;3138;52.550;13.148;2022-08-18T09:23:22;23.53;;;16.33;;
6209;SDS011;3138;52.550;13.148;2022-08-18T09:25:53;23.40;;;16.67;;
6209;SDS011;3138;52.550;13.148;2022-08-18T09:28:41;21.60;;;16.90;;
6209;SDS011;3138;52.550;13.148;2022-08-18T09:31:20;27.17;;;16.60;;
6209;SDS011;3138;52.550;13.148;2022-08-18T09:36:48;19.07;;;15.60;;
6209;SDS011;3138;52.550;13.148;2022-08-18T09:39:37;18.60;;;15.50;;
6209;SDS011;3138;52.550;13.148;2022-08-18T09:42:26;25.07;;;16.77;;
6209;SDS011;3138;52.550;13.148;2022-08-18T09:45:10;32.90;;;15.60;;
6209;SDS011;3138;52.550;13.148;2022-08-18T09:48:24;21.73;;;14.67;;
6209;SDS011;3138;52.550;13.148;2022-08-18T09:50:59;22.40;;;14.80;;
6209;SDS011;3138;52.550;13.148;2022-08-18T09:54:04;16.50;;;14.50;;
6209;SDS011;3138;52.550;13.148;2022-08-18T09:59:58;16.80;;;14.10;;
6209;SDS011;3138;52.550;13.148;2022-08-18T10:08:56;18.73;;;15.50;;
6209;SDS011;3138;52.550;13.148;2022-08-18T10:11:33;16.30;;;14.50;;
6209;SDS011;3138;52.550;13.148;2022-08-18T10:14:16;29.03;;;13.67;;
6209;SDS011;3138;52.550;13.148;2022-08-18T10:17:02;14.83;;;13.23;;
6209;SDS011;3138;52.550;13.148;2022-08-18T10:19:40;37.43;;;13.67;;
6209;SDS011;3138;52.550;13.148;2022-08-18T10:25:07;14.07;;;12.60;;
6209;SDS011;3138;52.550;13.148;2022-08-18T10:27:45;17.30;;;11.87;;
6209;SDS011;3138;52.550;13.148;2022-08-18T10:36:36;20.53;;;12.60;;
6209;SDS011;3138;52.550;13.148;2022-08-18T10:39:13;15.73;;;12.10;;
6209;SDS011;3138;52.550;13.148;2022-08-18T10:41:46;16.87;;;13.83;;
6209;SDS011;3138;52.550;13.148;2022-08-18T10:44:26;25.70;;;13.07;;
6209;SDS011;3138;52.550;13.148;2022-08-18T10:46:57;24.33;;;14.03;;
6209;SDS011;3138;52.550;13.148;2022-08-18T10:49:25;15.40;;;13.60;;
6209;SDS011;3138;52.550;13.148;2022-08-18T11:01:02;17.70;;;12.50;;
6209;SDS011;3138;52.550;13.148;2022-08-18T11:03:41;25.07;;;13.03;;
6209;SDS011;3138;52.550;13.148;2022-08-18T11:06:24;25.77;;;13.03;;
6209;SDS011;3138;52.550;13.148;2022-08-18T11:08:53;16.00;;;13.03;;
6209;SDS011;3138;52.550;13.148;2022-08-18T11:11:35;31.33;;;15.87;;
6209;SDS011;3138;52.550;13.148;2022-08-18T11:14:14;39.93;;;26.63;;
6209;SDS011;3138;52.550;13.148;2022-08-18T11:16:52;19.23;;;12.00;;
6209;SDS011;3138;52.550;13.148;2022-08-18T11:19:37;13.10;;;11.70;;
6209;SDS011;3138;52.550;13.148;2022-08-18T11:22:05;26.20;;;12.57;;
6209;SDS011;3138;52.550;13.148;2022-08-18T11:24:46;20.27;;;12.10;;
6209;SDS011;3138;52.550;13.148;2022-08-18T11:27:17;16.10;;;11.50;;
6209;SDS011;3138;52.550;13.148;2022-08-18T11:29:45;15.87;;;11.67;;
6209;SDS011;3138;52.550;13.148;2022-08-18T11:32:15;22.20;;;11.37;;
6209;SDS011;3138;52.550;13.148;2022-08-18T11:34:48;23.07;;;11.90;;
6209;SDS011;3138;52.550;13.148;2022-08-18T11:37:25;23.17;;;11.83;;
6209;SDS011;3138;52.550;13.148;2022-08-18T11:39:56;14.60;;;11.47;;
6209;SDS011;3138;52.550;13.148;2022-08-18T11:42:27;19.23;;;11.87;;
6209;SDS011;3138;52.550;13.148;2022-08-18T11:45:05;29.33;;;11.77;;
6209;SDS011;3138;52.550;13.148;2022-08-18T11:47:38;16.03;;;11.77;;
6209;SDS011;3138;52.550;13.148;2022-08-18T11:50:25;15.40;;;10.17;;
6209;SDS011;3138;52.550;13.148;2022-08-18T11:52:53;30.73;;;10.60;;
6209;SDS011;3138;52.550;13.148;2022-08-18T11:55:21;13.67;;;9.63;;
6209;SDS011;3138;52.550;13.148;2022-08-18T11:57:56;16.20;;;11.27;;
6209;SDS011;3138;52.550;13.148;2022-08-18T12:03:27;24.63;;;9.00;;
6209;SDS011;3138;52.550;13.148;2022-08-18T12:05:57;19.80;;;9.43;;
6209;SDS011;3138;52.550;13.148;2022-08-18T12:08:35;10.47;;;9.47;;
6209;SDS011;3138;52.550;13.148;2022-08-18T12:11:18;11.90;;;9.07;;
6209;SDS011;3138;52.550;13.148;2022-08-18T12:13:56;17.83;;;9.40;;
6209;SDS011;3138;52.550;13.148;2022-08-18T12:16:33;44.60;;;28.10;;
6209;SDS011;3138;52.550;13.148;2022-08-18T12:19:02;28.13;;;9.97;;
6209;SDS011;3138;52.550;13.148;2022-08-18T12:21:30;20.13;;;15.60;;
6209;SDS011;3138;52.550;13.148;2022-08-18T12:23:57;57.13;;;51.13;;
6209;SDS011;3138;52.550;13.148;2022-08-18T12:26:24;65.63;;;52.00;;
6209;SDS011;3138;52.550;13.148;2022-08-18T12:28:52;23.73;;;13.17;;
6209;SDS011;3138;52.550;13.148;2022-08-18T12:31:19;19.93;;;17.10;;
6209;SDS011;3138;52.550;13.148;2022-08-18T12:33:46;14.23;;;9.10;;
6209;SDS011;3138;52.550;13.148;2022-08-18T12:36:13;13.87;;;9.70;;
6209;SDS011;3138;52.550;13.148;2022-08-18T12:38:40;29.17;;;8.93;;
6209;SDS011;3138;52.550;13.148;2022-08-18T12:41:09;24.43;;;9.63;;
6209;SDS011;3138;52.550;13.148;2022-08-18T12:43:39;10.57;;;8.17;;
6209;SDS011;3138;52.550;13.148;2022-08-18T12:46:07;21.23;;;7.90;;
6209;SDS011;3138;52.550;13.148;2022-08-18T12:48:35;13.90;;;7.83;;
6209;SDS011;3138;52.550;13.148;2022-08-18T12:51:03;12.60;;;8.97;;
6209;SDS011;3138;52.550;13.148;2022-08-18T12:53:30;9.80;;;8.80;;
6209;SDS011;3138;52.550;13.148;2022-08-18T12:55:58;15.43;;;10.10;;
6209;SDS011;3138;52.550;13.148;2022-08-18T12:58:25;16.63;;;10.33;;
6209;SDS011;3138;52.550;13.148;2022-08-18T13:00:53;13.80;;;8.63;;
6209;SDS011;3138;52.550;13.148;2022-08-18T13:03:21;8.43;;;7.63;;
6209;SDS011;3138;52.550;13.148;2022-08-18T13:05:48;8.67;;;7.97;;
6209;SDS011;3138;52.550;13.148;2022-08-18T13:08:16;13.40;;;8.60;;
6209;SDS011;3138;52.550;13.148;2022-08-18T13:10:45;10.10;;;7.87;;
6209;SDS011;3138;52.550;13.148;2022-08-18T13:13:13;12.10;;;9.00;;
6209;SDS011;3138;52.550;13.148;2022-08-18T13:15:40;12.70;;;8.43;;
6209;SDS011;3138;52.550;13.148;2022-08-18T13:18:08;12.17;;;8.83;;
6209;SDS011;3138;52.550;13.148;2022-08-18T13:20:36;24.33;;;10.50;;
6209;SDS011;3138;52.550;13.148;2022-08-18T13:23:03;13.60;;;10.13;;
6209;SDS011;3138;52.550;13.148;2022-08-18T13:25:30;26.63;;;10.60;;
6209;SDS011;3138;52.550;13.148;2022-08-18T13:27:57;9.77;;;8.83;;
6209;SDS011;3138;52.550;13.148;2022-08-18T13:30:24;22.07;;;10.23;;
6209;SDS011;3138;52.550;13.148;2022-08-18T13:32:51;19.03;;;10.10;;
6209;SDS011;3138;52.550;13.148;2022-08-18T13:35:19;28.57;;;10.40;;
6209;SDS011;3138;52.550;13.148;2022-08-18T13:37:47;13.80;;;10.20;;
6209;SDS011;3138;52.550;13.148;2022-08-18T13:40:14;11.60;;;9.63;;
6209;SDS011;3138;52.550;13.148;2022-08-18T13:42:45;14.07;;;10.37;;
6209;SDS011;3138;52.550;13.148;2022-08-18T13:45:14;18.67;;;9.97;;
6209;SDS011;3138;52.550;13.148;2022-08-18T13:47:42;12.20;;;10.10;;
6209;SDS011;3138;52.550;13.148;2022-08-18T13:50:09;12.80;;;10.30;;
6209;SDS011;3138;52.550;13.148;2022-08-18T13:52:37;19.13;;;10.43;;
6209;SDS011;3138;52.550;13.148;2022-08-18T13:55:07;18.87;;;9.50;;
6209;SDS011;3138;52.550;13.148;2022-08-18T13:57:37;12.97;;;10.20;;
6209;SDS011;3138;52.550;13.148;2022-08-18T14:00:07;19.93;;;13.50;;
6209;SDS011;3138;52.550;13.148;2022-08-18T14:02:36;14.17;;;9.20;;
6209;SDS011;3138;52.550;13.148;2022-08-18T14:05:04;9.33;;;8.40;;
6209;SDS011;3138;52.550;13.148;2022-08-18T14:07:32;12.90;;;10.23;;
6209;SDS011;3138;52.550;13.148;2022-08-18T14:10:00;14.07;;;8.87;;
6209;SDS011;3138;52.550;13.148;2022-08-18T14:12:28;24.90;;;9.27;;
6209;SDS011;3138;52.550;13.148;2022-08-18T14:14:55;21.00;;;9.80;;
6209;SDS011;3138;52.550;13.148;2022-08-18T14:17:23;16.23;;;8.80;;
6209;SDS011;3138;52.550;13.148;2022-08-18T14:19:50;19.67;;;9.07;;
6209;SDS011;3138;52.550;13.148;2022-08-18T14:22:35;29.90;;;9.13;;
6209;SDS011;3138;52.550;13.148;2022-08-18T14:25:20;10.23;;;7.57;;
6209;SDS011;3138;52.550;13.148;2022-08-18T14:28:05;12.20;;;8.50;;
6209;SDS011;3138;52.550;13.148;2022-08-18T14:30:33;13.33;;;8.67;;
6209;SDS011;3138;52.550;13.148;2022-08-18T14:33:02;12.07;;;8.53;;
6209;SDS011;3138;52.550;13.148;2022-08-18T14:35:30;8.70;;;7.00;;
6209;SDS011;3138;52.550;13.148;2022-08-18T14:37:57;12.10;;;7.60;;
6209;SDS011;3138;52.550;13.148;2022-08-18T14:40:25;14.87;;;7.70;;
6209;SDS011;3138;52.550;13.148;2022-08-18T14:42:52;8.90;;;8.07;;
6209;SDS011;3138;52.550;13.148;2022-08-18T14:45:21;7.63;;;6.67;;
6209;SDS011;3138;52.550;13.148;2022-08-18T14:47:49;8.47;;;6.80;;
6209;SDS011;3138;52.550;13.148;2022-08-18T14:50:18;9.83;;;6.00;;
6209;SDS011;3138;52.550;13.148;2022-08-18T14:52:45;6.77;;;6.13;;
6209;SDS011;3138;52.550;13.148;2022-08-18T14:55:13;7.33;;;6.33;;
6209;SDS011;3138;52.550;13.148;2022-08-18T14:57:41;14.73;;;6.13;;
6209;SDS011;3138;52.550;13.148;2022-08-18T15:00:10;11.23;;;6.70;;
6209;SDS011;3138;52.550;13.148;2022-08-18T15:02:41;16.10;;;7.97;;
6209;SDS011;3138;52.550;13.148;2022-08-18T15:05:08;11.13;;;8.23;;
6209;SDS011;3138;52.550;13.148;2022-08-18T15:07:35;11.63;;;7.77;;
6209;SDS011;3138;52.550;13.148;2022-08-18T15:10:03;8.63;;;7.23;;
6209;SDS011;3138;52.550;13.148;2022-08-18T15:12:30;16.13;;;7.73;;
6209;SDS011;3138;52.550;13.148;2022-08-18T15:14:57;10.80;;;7.80;;
6209;SDS011;3138;52.550;13.148;2022-08-18T15:17:24;24.90;;;8.70;;
6209;SDS011;3138;52.550;13.148;2022-08-18T15:19:53;14.33;;;7.93;;
6209;SDS011;3138;52.550;13.148;2022-08-18T15:22:20;11.00;;;7.70;;
6209;SDS011;3138;52.550;13.148;2022-08-18T15:25:05;34.00;;;9.07;;
6209;SDS011;3138;52.550;13.148;2022-08-18T15:27:51;12.40;;;8.53;;
6209;SDS011;3138;52.550;13.148;2022-08-18T15:30:18;10.50;;;8.10;;
6209;SDS011;3138;52.550;13.148;2022-08-18T15:32:47;8.60;;;7.70;;
6209;SDS011;3138;52.550;13.148;2022-08-18T15:35:16;9.40;;;8.47;;
6209;SDS011;3138;52.550;13.148;2022-08-18T15:37:45;36.23;;;10.13;;
6209;SDS011;3138;52.550;13.148;2022-08-18T15:40:14;10.70;;;8.00;;
6209;SDS011;3138;52.550;13.148;2022-08-18T15:42:44;18.53;;;8.00;;